Home > Products > Valid Products > TAF

000
FTUS43 KJKL 220900 AAA
TAFJKL
TAF AMD
KJKL 220902Z 2209/2306 VRB03KT P6SM FEW050 SCT250
     FM221000 VRB03KT P6SM BKN025
     FM221400 34003KT P6SM SCT015 SCT035
     FM222100 VRB04KT P6SM FEW040=



000
FTUS43 KJKL 220900 AAA
TAFLOZ
TAF AMD
KLOZ 220901Z 2209/2306 VRB05KT P6SM FEW060
     FM221000 VRB03KT P6SM SCT025
     FM221400 VRB03KT P6SM SCT015 SCT035
     FM221900 VRB04KT P6SM FEW040=



000
FTUS43 KJKL 220500
TAFLOZ
TAF
KLOZ 220540Z 2206/2306 VRB05KT P6SM FEW060
     FM220900 VRB03KT P6SM BKN025
     FM221400 VRB03KT P6SM SCT015 SCT035
     FM221900 VRB04KT P6SM FEW040=



000
FTUS43 KJKL 220500
TAFJKL
TAF
KJKL 220540Z 2206/2306 VRB03KT P6SM FEW050 SCT250
     FM220900 VRB03KT P6SM BKN025
     FM221400 34003KT P6SM SCT015 SCT035
     FM222100 VRB04KT P6SM FEW040=



000
FTUS43 KJKL 220500
TAFSME
TAF
KSME 220540Z 2206/2306 VRB05KT P6SM SKC
     FM221000 VRB03KT P6SM SCT025
     FM221400 VRB03KT P6SM SCT015 SCT035
     FM221900 VRB04KT P6SM FEW040=



000
FTUS43 KJKL 220300 AAA
TAFSME
TAF AMD
KSME 220323Z 2203/2224 VRB03KT P6SM SKC
     FM220800 VRB03KT P6SM BKN025
     FM221000 VRB03KT P6SM BKN010
     FM221600 VRB03KT P6SM SCT015 SCT035
     FM221900 VRB04KT P6SM FEW045=



000
FTUS43 KJKL 220300 AAA
TAFJKL
TAF AMD
KJKL 220322Z 2203/2224 30007KT P6SM FEW050 SCT250
     FM220700 VRB03KT P6SM BKN025
     FM220900 VRB03KT P6SM BKN007
     FM221600 VRB03KT P6SM SCT015 SCT035
     FM222100 VRB04KT P6SM FEW040=



000
FTUS43 KJKL 212300
TAFJKL
TAF
KJKL 212320Z 2200/2224 30007G18KT P6SM FEW050 SCT250
     FM220700 VRB03KT P6SM BKN025
     FM220900 VRB03KT P6SM BKN007
     FM221600 VRB03KT P6SM SCT015 SCT035
     FM222100 VRB04KT P6SM FEW040=



000
FTUS43 KJKL 212300
TAFLOZ
TAF
KLOZ 212320Z 2200/2224 30009KT P6SM FEW060
     FM220700 VRB03KT P6SM BKN025
     FM220900 VRB03KT P6SM BKN010
     FM221600 VRB03KT P6SM SCT015 SCT035
     FM221900 VRB04KT P6SM FEW045=



000
FTUS43 KJKL 212300
TAFSME
TAF
KSME 212320Z 2200/2224 30007G15KT P6SM SKC
     FM220800 VRB03KT P6SM BKN025
     FM221000 VRB03KT P6SM BKN010
     FM221600 VRB03KT P6SM SCT015 SCT035
     FM221900 VRB04KT P6SM FEW045=



000
FTUS43 KJKL 211700
TAFJKL
TAF
KJKL 211736Z 2118/2218 25005KT P6SM VCSH BKN016 BKN025
     FM212000 27008G15KT P6SM VCSH BKN025 BKN035
     FM212100 29008G17KT P6SM SCT025 SCT035
     FM212200 29006KT P6SM SKC
     FM220900 VRB03KT P6SM BKN007
     FM221600 VRB03KT P6SM SCT015=



000
FTUS43 KJKL 211700
TAFLOZ
TAF
KLOZ 211736Z 2118/2218 25010G17KT P6SM VCSH BKN025 OVC035
     FM212100 28008G17KT P6SM VCSH SCT025 SCT035
     FM212200 29006KT P6SM SKC
     FM220900 VRB03KT P6SM BKN010
     FM221600 VRB03KT P6SM SCT015=



000
FTUS43 KJKL 211700
TAFSME
TAF
KSME 211736Z 2118/2218 26012G18KT P6SM VCSH BKN025 OVC035
     FM212100 28008G17KT P6SM VCSH SCT025 SCT035
     FM212200 29006KT P6SM SKC
     FM220900 VRB03KT P6SM BKN010
     FM221600 VRB03KT P6SM SCT015=



000
FTUS43 KJKL 211500 AAA
TAFLOZ
TAF AMD
KLOZ 211539Z 2116/2212 24006KT P6SM VCSH BKN025 OVC035
     FM211700 26011G22KT P6SM VCSH BKN025 BKN035
     FM212300 29006KT P6SM FEW015 SCT030 SCT250
     FM220800 31003KT P6SM OVC015=



000
FTUS43 KJKL 211500 AAA
TAFSME
TAF AMD
KSME 211538Z 2116/2212 27012G22KT P6SM VCSH BKN025 OVC035
     FM212300 30006KT P6SM FEW015 SCT030 SCT250
     FM220800 35003KT P6SM OVC015=



000
FTUS43 KJKL 211500 AAA
TAFJKL
TAF AMD
KJKL 211518Z 2115/2212 VRB03KT P6SM BKN025 OVC040
     FM211700 25008G18KT P6SM VCSH SCT025 BKN035
     FM212300 29006KT P6SM FEW015 SCT025 SCT250
     FM220700 VRB03KT P6SM OVC015=



000
FTUS43 KJKL 211100
TAFSME
TAF
KSME 211139Z 2112/2212 VRB03KT 4SM BR FEW050 BKN250
     FM211300 24008KT P6SM VCSH BKN035
     FM211500 27012G22KT 6SM -SHRA VCTS SCT025 BKN035CB
     FM212300 30006KT P6SM FEW015 SCT030 SCT250
     FM220800 35003KT P6SM OVC015=



000
FTUS43 KJKL 211100
TAFJKL
TAF
KJKL 211139Z 2112/2212 VRB03KT P6SM FEW050 BKN250
     FM211400 22006KT P6SM VCSH BKN035
     FM211600 25008G18KT 6SM -SHRA VCTS SCT025 BKN035CB
     FM212300 29006KT P6SM FEW015 SCT025 SCT250
     FM220700 VRB03KT P6SM OVC015=



000
FTUS43 KJKL 211100
TAFLOZ
TAF
KLOZ 211139Z 2112/2212 VRB03KT P6SM FEW050 BKN250
     FM211300 23008KT P6SM VCSH BKN035
     FM211500 26011G22KT 6SM -SHRA VCTS SCT025 BKN035CB
     FM212300 29006KT P6SM FEW015 SCT030 SCT250
     FM220800 31003KT P6SM OVC015=



000
FTUS43 KJKL 210800 AAA
TAFSME
TAF AMD
KSME 210841Z 2109/2206 VRB03KT 4SM BR FEW050 BKN250
     FM211300 24008KT P6SM VCSH BKN035
     FM211500 27012G22KT 6SM -SHRA VCTS SCT025 BKN035CB
     FM212300 30006KT P6SM SCT030 SCT250=



000
FTUS43 KJKL 210700 AAA
TAFLOZ
TAF AMD
KLOZ 210754Z 2108/2206 VRB03KT 4SM BR FEW050 BKN250
     FM211300 23008KT P6SM VCSH BKN035
     FM211500 26011G22KT 6SM -SHRA VCTS SCT025 BKN035CB
     FM212300 29006KT P6SM SCT030 SCT250=



000
FTUS43 KJKL 210500
TAFJKL
TAF
KJKL 210539Z 2106/2206 VRB03KT P6SM FEW050 BKN250
     FM211300 22006KT P6SM VCSH BKN035
     FM211500 25008G18KT 6SM -SHRA VCTS SCT025 BKN035CB
     FM212300 29006KT P6SM SCT025 SCT250=



000
FTUS43 KJKL 210500
TAFLOZ
TAF
KLOZ 210539Z 2106/2206 VRB03KT 4SM BR FEW050 BKN250
     FM210800 00000KT 2SM BR FEW050 BKN250
     FM211300 23008KT P6SM VCSH BKN035
     FM211500 26011G22KT 6SM -SHRA VCTS SCT025 BKN035CB
     FM212300 29006KT P6SM SCT030 SCT250=



000
FTUS43 KJKL 210500
TAFSME
TAF
KSME 210539Z 2106/2206 VRB03KT 4SM BR FEW050 BKN250
     FM210800 00000KT 2SM BR FEW050 BKN250
     FM211300 24008KT P6SM VCSH BKN035
     FM211500 27012G22KT 6SM -SHRA VCTS SCT025 BKN035CB
     FM212300 30006KT P6SM SCT030 SCT250=



000
FTUS43 KJKL 202300
TAFJKL
TAF
KJKL 202321Z 2100/2124 00000KT P6SM FEW050 FEW250
     FM211500 VRB03KT P6SM VCSH BKN030
     FM211600 VRB03KT 6SM -SHRA BKN025=



000
FTUS43 KJKL 202300
TAFSME
TAF
KSME 202321Z 2100/2124 27005KT P6SM FEW050 FEW250
     FM211400 VRB03KT P6SM VCSH BKN040
     FM211500 VRB03KT 6SM -SHRA BKN035=



000
FTUS43 KJKL 202300
TAFLOZ
TAF
KLOZ 202321Z 2100/2124 28005KT P6SM FEW050 FEW250
     FM211500 VRB03KT P6SM VCSH BKN040
     FM211600 VRB03KT 6SM -SHRA BKN035=



000
FTUS43 KJKL 201700 RRA
TAFSME
TAF
KSME 201742Z 2018/2118 20005KT P6SM SCT080
     FM211500 VRB03KT P6SM -SHRA BKN040=



000
FTUS43 KJKL 201700 RRA
TAFJKL
TAF
KJKL 201742Z 2018/2118 VRB03KT P6SM SCT080
     FM211500 VRB03KT P6SM -SHRA BKN040=



000
FTUS43 KJKL 201700 RRA
TAFLOZ
TAF
KLOZ 201742Z 2018/2118 21008KT P6SM SCT080
     FM211500 VRB03KT P6SM -SHRA BKN040=



000
FTUS43 KJKL 201100
TAFJKL
TAF
KJKL 201139Z 2012/2112 VRB03KT P6SM SCT050
     FM211100 VRB03KT P6SM BKN040=



000
FTUS43 KJKL 201100
TAFSME
TAF
KSME 201139Z 2012/2112 00000KT P6SM BKN050
     FM201500 22007KT P6SM SCT050
     FM202300 VRB03KT P6SM SCT060
     FM211100 VRB03KT P6SM BKN040=



000
FTUS43 KJKL 201100
TAFLOZ
TAF
KLOZ 201139Z 2012/2112 VRB03KT P6SM BKN050
     FM201500 22007KT P6SM SCT050
     FM202300 VRB03KT P6SM SCT060
     FM211100 VRB03KT P6SM BKN040=



000
FTUS43 KJKL 200900 AAA
TAFSME
TAF AMD
KSME 200909Z 2009/2106 VRB03KT P6SM SCT050
     FM201000 00000KT 6SM BR SCT050
     FM201400 21005KT P6SM SCT050=



000
FTUS43 KJKL 200500
TAFLOZ
TAF
KLOZ 200538Z 2006/2106 00000KT P6SM SCT050
     FM201100 00000KT 6SM BR FEW050
     FM201400 21005KT P6SM SCT050=



000
FTUS43 KJKL 200500
TAFJKL
TAF
KJKL 200538Z 2006/2106 00000KT P6SM SKC
     FM201300 20003KT P6SM SCT045=



000
FTUS43 KJKL 200500
TAFSME
TAF
KSME 200538Z 2006/2106 VRB03KT 6SM BR SCT050
     FM201000 00000KT 4SM BR SCT050
     FM201400 21005KT P6SM SCT050=



000
FTUS43 KJKL 192300
TAFLOZ
TAF
KLOZ 192323Z 2000/2024 VRB03KT P6SM SKC
     FM200500 00000KT P6SM SCT050
     FM201400 21005KT P6SM SCT050=



000
FTUS43 KJKL 192300
TAFJKL
TAF
KJKL 192323Z 2000/2024 00000KT P6SM SKC
     FM201300 20003KT P6SM SCT045=



000
FTUS43 KJKL 192300
TAFSME
TAF
KSME 192323Z 2000/2024 VRB03KT P6SM SKC
     FM200500 00000KT P6SM SCT050
     FM201400 21005KT P6SM SCT050=



000
FTUS43 KJKL 191700
TAFJKL
TAF
KJKL 191720Z 1918/2018 VRB03KT P6SM SCT050=



000
FTUS43 KJKL 191700
TAFLOZ
TAF
KLOZ 191720Z 1918/2018 06005KT P6SM SCT050
     FM200000 00000KT P6SM SKC=



000
FTUS43 KJKL 191700
TAFSME
TAF
KSME 191720Z 1918/2018 08006KT P6SM FEW050
     FM200000 00000KT P6SM SKC=



000
FTUS43 KJKL 191100
TAFLOZ
TAF
KLOZ 191137Z 1912/2012 00000KT P6SM SKC
     FM191700 VRB03KT P6SM FEW050
     FM200800 00000KT 4SM BR SKC=



000
FTUS43 KJKL 191100
TAFJKL
TAF
KJKL 191137Z 1912/2012 00000KT P6SM SKC
     FM191700 VRB03KT P6SM SCT050=



000
FTUS43 KJKL 191100
TAFSME
TAF
KSME 191137Z 1912/2012 00000KT 6SM BR SKC
     FM191230 VRB03KT P6SM SKC
     FM191700 VRB03KT P6SM FEW050
     FM200800 00000KT 2SM BR SKC
      AMD NOT SKED=



    US Dept of Commerce
    National Oceanic and Atmospheric Administration
    National Weather Service
    1325 East West Highway
    Silver Spring, MD 20910
    Page Author: NWS Internet Services Team
Disclaimer
Information Quality
Credits
Glossary
Privacy Policy
Freedom of Information Act (FOIA)
About Us
Career Opportunities